createdAt,value
2023-12-29T00:03:56.692Z,0.00
2023-12-29T00:08:56.642Z,0.00
2023-12-29T00:13:56.516Z,0.00
2023-12-29T00:18:56.577Z,0.00
2023-12-29T00:23:56.367Z,0.00
2023-12-29T00:28:56.375Z,0.00
2023-12-29T00:33:56.379Z,0.00
2023-12-29T00:38:56.212Z,0.00
2023-12-29T00:43:56.121Z,0.00
2023-12-29T00:48:56.174Z,0.00
2023-12-29T00:53:55.996Z,0.00
2023-12-29T00:58:55.939Z,0.00
2023-12-29T01:03:56.147Z,0.00
2023-12-29T01:08:55.784Z,0.00
2023-12-29T01:13:55.736Z,0.00
2023-12-29T01:18:55.757Z,0.00
2023-12-29T01:23:55.606Z,0.00
2023-12-29T01:28:55.516Z,0.00
2023-12-29T01:33:55.516Z,0.00
2023-12-29T01:38:55.387Z,0.00
2023-12-29T01:43:55.365Z,0.00
2023-12-29T01:48:55.413Z,0.00
2023-12-29T01:53:55.219Z,0.00
2023-12-29T01:58:55.467Z,0.00
2023-12-29T02:03:55.230Z,0.00
2023-12-29T02:08:55.002Z,0.00
2023-12-29T02:13:54.946Z,0.00
2023-12-29T02:18:54.988Z,0.00
2023-12-29T02:23:54.822Z,0.00
2023-12-29T02:28:54.724Z,0.00
2023-12-29T02:33:54.822Z,0.00
2023-12-29T02:38:54.619Z,0.00
2023-12-29T02:43:54.555Z,0.00
2023-12-29T02:48:54.508Z,0.00
2023-12-29T02:53:54.437Z,0.00
2023-12-29T02:58:54.334Z,0.00
2023-12-29T03:03:54.286Z,0.00
2023-12-29T03:08:54.218Z,0.00
2023-12-29T03:13:54.148Z,0.00
2023-12-29T03:18:54.149Z,0.00
2023-12-29T03:23:54.017Z,0.00
2023-12-29T03:28:53.950Z,0.00
2023-12-29T03:33:54.010Z,0.00
2023-12-29T03:38:53.808Z,0.00
2023-12-29T03:43:53.765Z,0.00
2023-12-29T03:48:53.939Z,0.00
2023-12-29T03:53:53.624Z,0.00
2023-12-29T03:58:53.541Z,0.00
2023-12-29T04:03:53.516Z,0.00
2023-12-29T04:08:53.412Z,0.00
2023-12-29T04:13:53.361Z,0.00
2023-12-29T04:18:53.421Z,0.00
2023-12-29T04:23:53.235Z,0.00
2023-12-29T04:28:53.144Z,0.00
2023-12-29T04:33:53.135Z,0.00
2023-12-29T04:38:53.006Z,0.00
2023-12-29T04:43:52.969Z,0.00
2023-12-29T04:48:52.904Z,0.00
2023-12-29T04:53:52.844Z,0.00
2023-12-29T04:58:52.747Z,0.00
2023-12-29T05:03:52.754Z,0.00
2023-12-29T05:08:52.621Z,0.00
2023-12-29T05:14:13.569Z,0.00
2023-12-29T05:18:52.570Z,0.00
2023-12-29T05:23:52.407Z,0.00
2023-12-29T05:28:52.351Z,0.00
2023-12-29T05:33:52.380Z,0.00
2023-12-29T05:38:52.219Z,0.00
2023-12-29T05:43:52.150Z,0.00
2023-12-29T05:48:52.185Z,0.00
2023-12-29T05:53:52.007Z,0.00
2023-12-29T05:58:51.986Z,0.00
2023-12-29T06:03:52.862Z,0.00
2023-12-29T06:08:51.874Z,0.00
2023-12-29T06:13:51.762Z,0.00
2023-12-29T06:18:51.838Z,0.00
2023-12-29T06:23:51.612Z,0.00
2023-12-29T06:28:51.565Z,0.00
2023-12-29T06:33:52.461Z,0.00
2023-12-29T06:38:51.434Z,0.00
2023-12-29T06:43:51.359Z,0.00
2023-12-29T06:48:51.465Z,0.00
2023-12-29T06:53:51.215Z,0.00
2023-12-29T06:58:51.174Z,0.00
2023-12-29T07:03:51.150Z,0.00
2023-12-29T07:08:51.049Z,0.00
2023-12-29T07:13:50.963Z,0.00
2023-12-29T07:18:50.986Z,4.00
2023-12-29T07:23:50.841Z,8.00
2023-12-29T07:28:50.785Z,16.00
2023-12-29T07:33:50.853Z,44.00
2023-12-29T07:38:50.670Z,36.00
2023-12-29T07:43:50.568Z,48.00
2023-12-29T07:48:50.746Z,88.00
2023-12-29T07:53:50.447Z,104.00
2023-12-29T07:58:50.619Z,132.00
2023-12-29T08:03:50.369Z,184.00
2023-12-29T08:08:50.261Z,260.00
2023-12-29T08:13:50.177Z,336.00
2023-12-29T08:18:50.228Z,396.00
2023-12-29T08:23:50.050Z,368.00
2023-12-29T08:28:50.018Z,344.00
2023-12-29T08:33:50.049Z,372.00
2023-12-29T08:38:49.873Z,284.00
2023-12-29T08:43:49.795Z,288.00
2023-12-29T08:48:49.788Z,268.00
2023-12-29T08:53:49.635Z,300.00
2023-12-29T08:58:49.574Z,408.00
2023-12-29T09:03:49.631Z,460.00
2023-12-29T09:08:49.496Z,392.00
2023-12-29T09:13:49.373Z,368.00
2023-12-29T09:18:49.424Z,360.00
2023-12-29T09:23:50.248Z,532.00
2023-12-29T09:28:49.207Z,620.00
2023-12-29T09:33:49.332Z,1048.00
2023-12-29T09:38:49.094Z,1064.00
2023-12-29T09:43:49.001Z,760.00
2023-12-29T09:48:49.082Z,556.00
2023-12-29T09:53:48.853Z,572.00
2023-12-29T09:58:48.842Z,1088.00
2023-12-29T10:03:48.904Z,1808.00
2023-12-29T10:08:48.674Z,2448.00
2023-12-29T10:13:48.580Z,1664.00
2023-12-29T10:18:48.689Z,2052.00
2023-12-29T10:23:48.453Z,3888.00
2023-12-29T10:28:48.394Z,4056.00
2023-12-29T10:33:48.408Z,3032.00
2023-12-29T10:38:48.269Z,4060.00
2023-12-29T10:43:48.202Z,2464.00
2023-12-29T10:48:48.217Z,3648.00
2023-12-29T10:53:48.050Z,2264.00
2023-12-29T10:58:48.015Z,1768.00
2023-12-29T11:03:47.963Z,3216.00
2023-12-29T11:08:47.872Z,4428.00
2023-12-29T11:13:47.820Z,4212.00
2023-12-29T11:18:47.852Z,4700.00
2023-12-29T11:23:47.652Z,2880.00
2023-12-29T11:28:47.631Z,2644.00
2023-12-29T11:33:47.709Z,2140.00
2023-12-29T11:38:47.512Z,1980.00
2023-12-29T11:43:47.391Z,2152.00
2023-12-29T11:48:47.443Z,2600.00
2023-12-29T11:53:47.261Z,3212.00
2023-12-29T11:58:47.238Z,2156.00
2023-12-29T12:03:47.200Z,2552.00
2023-12-29T12:08:47.104Z,2716.00
2023-12-29T12:13:46.995Z,2772.00
2023-12-29T12:18:47.008Z,3704.00
2023-12-29T12:23:46.878Z,2136.00
2023-12-29T12:28:46.844Z,2744.00
2023-12-29T12:33:46.828Z,1900.00
2023-12-29T12:38:46.692Z,2252.00
2023-12-29T12:43:46.624Z,2668.00
2023-12-29T12:48:46.712Z,2172.00
2023-12-29T12:53:46.487Z,1892.00
2023-12-29T12:58:46.422Z,2364.00
2023-12-29T13:03:46.716Z,2644.00
2023-12-29T13:08:46.283Z,2344.00
2023-12-29T13:13:46.198Z,1980.00
2023-12-29T13:18:46.245Z,1436.00
2023-12-29T13:23:46.077Z,880.00
2023-12-29T13:28:46.042Z,836.00
2023-12-29T13:33:47.509Z,680.00
2023-12-29T13:38:46.855Z,640.00
2023-12-29T13:43:45.830Z,608.00
2023-12-29T13:48:45.861Z,704.00
2023-12-29T13:53:45.675Z,716.00
2023-12-29T13:58:45.676Z,856.00
2023-12-29T14:03:45.645Z,716.00
2023-12-29T14:08:45.489Z,496.00
2023-12-29T14:13:45.446Z,368.00
2023-12-29T14:18:45.451Z,316.00
2023-12-29T14:28:45.227Z,280.00
2023-12-29T14:33:45.207Z,228.00
2023-12-29T14:38:45.098Z,320.00
2023-12-29T14:43:45.032Z,288.00
2023-12-29T14:48:45.130Z,196.00
2023-12-29T14:53:44.888Z,132.00
2023-12-29T14:58:44.830Z,140.00
2023-12-29T15:03:44.800Z,120.00
2023-12-29T15:08:44.709Z,92.00
2023-12-29T15:13:44.629Z,84.00
2023-12-29T15:18:44.673Z,56.00
2023-12-29T15:23:44.529Z,40.00
2023-12-29T15:28:44.452Z,32.00
2023-12-29T15:33:44.430Z,20.00
2023-12-29T15:38:44.340Z,12.00
2023-12-29T15:43:44.226Z,8.00
2023-12-29T15:48:44.271Z,4.00
2023-12-29T15:53:44.082Z,4.00
2023-12-29T15:58:44.054Z,0.00
2023-12-29T16:03:44.020Z,0.00
2023-12-29T16:08:43.937Z,0.00
2023-12-29T16:13:43.823Z,0.00
2023-12-29T16:18:43.977Z,0.00
2023-12-29T16:23:43.681Z,0.00
2023-12-29T16:28:43.796Z,0.00
2023-12-29T16:33:43.716Z,0.00
2023-12-29T16:38:43.509Z,0.00
2023-12-29T16:43:43.438Z,0.00
2023-12-29T16:48:43.421Z,0.00
2023-12-29T16:53:43.314Z,0.00
2023-12-29T16:58:43.299Z,0.00
2023-12-29T17:03:44.174Z,0.00
2023-12-29T17:08:43.130Z,0.00
2023-12-29T17:13:43.025Z,0.00
2023-12-29T17:18:43.203Z,0.00
2023-12-29T17:23:42.909Z,0.00
2023-12-29T17:28:42.837Z,0.00
2023-12-29T17:33:42.901Z,0.00
2023-12-29T17:38:42.913Z,0.00
2023-12-29T17:43:42.624Z,0.00
2023-12-29T17:48:42.716Z,0.00
2023-12-29T17:53:42.524Z,0.00
2023-12-29T17:58:42.481Z,0.00
2023-12-29T18:03:42.554Z,0.00
2023-12-29T18:08:42.300Z,0.00
2023-12-29T18:13:42.446Z,0.00
2023-12-29T18:18:44.842Z,0.00
2023-12-29T18:23:42.090Z,0.00
2023-12-29T18:28:42.044Z,0.00
2023-12-29T18:33:42.175Z,0.00
2023-12-29T18:38:41.860Z,0.00
2023-12-29T18:43:41.953Z,0.00
2023-12-29T18:48:41.930Z,0.00
2023-12-29T18:53:41.815Z,0.00
2023-12-29T18:58:41.650Z,0.00
2023-12-29T19:03:41.643Z,0.00
2023-12-29T19:08:41.511Z,0.00
2023-12-29T19:13:41.444Z,0.00
2023-12-29T19:18:41.438Z,0.00
2023-12-29T19:23:41.314Z,0.00
2023-12-29T19:28:41.241Z,0.00
2023-12-29T19:33:41.503Z,0.00
2023-12-29T19:38:41.101Z,0.00
2023-12-29T19:43:41.055Z,0.00
2023-12-29T19:48:41.064Z,0.00
2023-12-29T19:53:40.966Z,0.00
2023-12-29T19:58:40.837Z,0.00
2023-12-29T20:03:40.893Z,0.00
2023-12-29T20:08:40.709Z,0.00
2023-12-29T20:13:40.667Z,0.00
2023-12-29T20:18:40.719Z,0.00
2023-12-29T20:23:42.921Z,0.00
2023-12-29T20:28:40.432Z,0.00
2023-12-29T20:33:40.501Z,0.00
2023-12-29T20:38:40.372Z,0.00
2023-12-29T20:43:40.560Z,0.00
2023-12-29T20:48:40.372Z,0.00
2023-12-29T20:53:40.145Z,0.00
2023-12-29T20:58:40.083Z,0.00
2023-12-29T21:03:40.074Z,0.00
2023-12-29T21:08:39.914Z,0.00
2023-12-29T21:13:39.992Z,0.00
2023-12-29T21:18:39.842Z,0.00
2023-12-29T21:23:39.755Z,0.00
2023-12-29T21:28:39.744Z,0.00
2023-12-29T21:33:39.628Z,0.00
2023-12-29T21:38:39.548Z,0.00
2023-12-29T21:43:39.506Z,0.00
2023-12-29T21:48:39.432Z,0.00
2023-12-29T21:53:39.355Z,0.00
2023-12-29T21:58:39.250Z,0.00
2023-12-29T22:03:39.398Z,0.00
2023-12-29T22:08:39.116Z,0.00
2023-12-29T22:13:39.067Z,0.00
2023-12-29T22:18:38.982Z,0.00
2023-12-29T22:23:38.927Z,0.00
2023-12-29T22:28:38.889Z,0.00
2023-12-29T22:33:39.095Z,0.00
2023-12-29T22:38:38.739Z,0.00
2023-12-29T22:43:38.700Z,0.00
2023-12-29T22:48:38.613Z,0.00
2023-12-29T22:53:38.523Z,0.00
2023-12-29T22:58:38.432Z,0.00
2023-12-29T23:03:38.408Z,0.00
2023-12-29T23:08:38.411Z,0.00
2023-12-29T23:13:38.308Z,0.00
2023-12-29T23:18:39.153Z,0.00
